Time;durP1;ratioP1;P1;durP2;ratioP2;P2;SDS_P1;SDS_P2;PMS_P1;PMS_P2;Temp;Humidity;BMP_temperature;BMP_pressure;BME280_temperature;BME280_humidity;BME280_pressure;Samples;Min_cycle;Max_cycle;Signal;HPM_P1;HPM_P2
2021/08/04 00:00:37;;;;;;;23.50;17.67;;;19.00;68.40;;;;;;4995131;28;20676;-93
2021/08/04 00:03:03;;;;;;;23.30;18.53;;;18.90;68.50;;;;;;5003228;28;20207;-93
2021/08/04 00:05:29;;;;;;;22.27;18.37;;;19.00;68.60;;;;;;4993950;28;20214;-93
2021/08/04 00:07:54;;;;;;;26.27;20.03;;;18.90;68.60;;;;;;4992290;28;20531;-93
2021/08/04 00:10:21;;;;;;;23.00;18.47;;;19.00;68.60;;;;;;4993084;28;20179;-93
2021/08/04 00:12:47;;;;;;;23.85;17.80;;;19.00;68.50;;;;;;4991762;28;20280;-93
2021/08/04 00:15:16;;;;;;;24.05;18.33;;;18.90;68.80;;;;;;4992477;28;20266;-93
2021/08/04 00:17:42;;;;;;;23.35;19.17;;;18.80;68.80;;;;;;4992599;28;20203;-93
2021/08/04 00:20:09;;;;;;;23.20;19.75;;;18.80;69.00;;;;;;4992276;28;20607;-93
2021/08/04 00:22:35;;;;;;;23.20;19.05;;;18.80;69.20;;;;;;4992254;28;20666;-93
2021/08/04 00:25:02;;;;;;;21.90;18.67;;;18.80;69.20;;;;;;4992680;28;20338;-93
2021/08/04 00:27:27;;;;;;;25.15;19.70;;;18.90;69.30;;;;;;4992325;28;20639;-93
2021/08/04 00:29:57;;;;;;;23.40;19.37;;;18.80;69.20;;;;;;4996305;28;20183;-93
2021/08/04 00:32:23;;;;;;;22.75;19.92;;;18.80;69.20;;;;;;4995923;28;20214;-93
2021/08/04 00:34:49;;;;;;;24.92;19.38;;;18.80;69.20;;;;;;5000826;28;20183;-94
2021/08/04 00:37:15;;;;;;;25.45;18.98;;;18.70;69.40;;;;;;5009648;28;20548;-93
2021/08/04 00:39:41;;;;;;;23.92;20.40;;;18.70;69.70;;;;;;4995756;28;20183;-93
2021/08/04 00:42:08;;;;;;;22.53;20.13;;;18.70;69.60;;;;;;4996853;28;20209;-93
2021/08/04 00:44:33;;;;;;;24.33;21.17;;;18.70;69.50;;;;;;4995766;28;20262;-91
2021/08/04 00:46:59;;;;;;;23.90;20.40;;;18.60;69.80;;;;;;4996543;28;20214;-91
2021/08/04 00:49:26;;;;;;;26.17;20.30;;;18.50;70.10;;;;;;4996477;28;20179;-91
2021/08/04 00:51:52;;;;;;;22.50;18.70;;;18.50;70.30;;;;;;4995622;28;20529;-91
2021/08/04 00:54:17;;;;;;;25.67;18.97;;;18.50;70.50;;;;;;4995988;28;20211;-91
2021/08/04 00:56:43;;;;;;;32.53;20.57;;;18.40;70.50;;;;;;5005143;28;20174;-90
2021/08/04 00:59:12;;;;;;;27.70;19.23;;;18.30;70.80;;;;;;5007458;28;20211;-91
2021/08/04 01:01:45;;;;;;;23.67;20.10;;;18.40;71.00;;;;;;5019467;28;20423;-90
2021/08/04 01:04:19;;;;;;;26.30;20.80;;;18.30;71.10;;;;;;5002024;28;20218;-91
2021/08/04 01:07:05;;;;;;;25.90;21.08;;;18.10;71.70;;;;;;4996924;28;20601;-91
2021/08/04 01:09:47;;;;;;;28.88;22.52;;;18.10;72.10;;;;;;4995362;28;20189;-91
2021/08/04 01:12:22;;;;;;;30.65;21.70;;;18.20;72.00;;;;;;4996040;28;20610;-91
2021/08/04 01:14:54;;;;;;;33.53;22.77;;;18.20;71.80;;;;;;4995265;28;20183;-91
2021/08/04 01:17:20;;;;;;;24.92;21.95;;;18.20;71.70;;;;;;4995367;28;20172;-91
2021/08/04 01:20:11;;;;;;;25.13;20.50;;;18.40;71.80;;;;;;4995676;28;20565;-90
2021/08/04 01:22:59;;;;;;;22.45;18.90;;;18.30;71.60;;;;;;4995233;28;20513;-91
2021/08/04 01:25:46;;;;;;;24.70;21.80;;;18.30;71.80;;;;;;4996336;28;20180;-91
2021/08/04 01:28:17;;;;;;;26.05;20.73;;;18.20;72.60;;;;;;4995206;28;20238;-91
2021/08/04 01:30:45;;;;;;;25.95;20.08;;;18.30;72.00;;;;;;4999699;28;20179;-91
2021/08/04 01:33:12;;;;;;;24.55;20.02;;;18.20;72.00;;;;;;4995152;28;20206;-91
2021/08/04 01:35:39;;;;;;;30.58;21.48;;;18.30;72.20;;;;;;4995021;28;20562;-91
2021/08/04 01:38:05;;;;;;;27.13;21.75;;;18.20;72.00;;;;;;4995408;28;20297;-91
2021/08/04 01:40:31;;;;;;;27.17;20.73;;;18.20;72.20;;;;;;5008986;28;20263;-89
2021/08/04 01:42:58;;;;;;;31.13;22.48;;;18.30;72.20;;;;;;4997341;28;20936;-91
2021/08/04 01:45:24;;;;;;;27.95;21.10;;;18.20;72.20;;;;;;4994944;28;20498;-91
2021/08/04 01:47:50;;;;;;;32.53;24.67;;;18.10;72.50;;;;;;4994669;28;20179;-91
2021/08/04 01:50:16;;;;;;;29.77;23.57;;;18.00;72.70;;;;;;4998231;28;20755;-93
2021/08/04 01:52:42;;;;;;;32.40;23.95;;;18.10;72.90;;;;;;5004282;28;20199;-91
2021/08/04 01:55:10;;;;;;;31.90;23.77;;;17.90;73.10;;;;;;4994691;28;20195;-91
2021/08/04 01:57:38;;;;;;;36.38;23.98;;;17.90;73.50;;;;;;4994623;28;20215;-91
2021/08/04 02:00:05;;;;;;;31.55;23.33;;;18.00;73.30;;;;;;4994760;28;20175;-91
2021/08/04 02:02:30;;;;;;;28.27;23.52;;;18.00;73.20;;;;;;4996790;28;20195;-91
2021/08/04 02:04:56;;;;;;;27.97;22.87;;;18.10;73.10;;;;;;4997701;28;20217;-91
2021/08/04 02:07:35;;;;;;;31.00;23.80;;;18.00;73.00;;;;;;5000153;28;20251;-92
2021/08/04 02:10:06;;;;;;;30.52;23.80;;;17.90;73.20;;;;;;4999584;28;20203;-91
2021/08/04 02:12:41;;;;;;;32.08;25.33;;;17.90;73.50;;;;;;4995295;28;20203;-92
2021/08/04 02:15:11;;;;;;;29.42;23.90;;;17.90;73.50;;;;;;4997045;28;20198;-91
2021/08/04 02:17:40;;;;;;;34.63;27.67;;;17.90;73.60;;;;;;4998621;28;20222;-91
2021/08/04 02:20:29;;;;;;;28.70;25.23;;;17.80;73.70;;;;;;4997365;28;20179;-91
2021/08/04 02:23:00;;;;;;;33.63;25.00;;;17.70;73.90;;;;;;4999205;28;20253;-91
2021/08/04 02:25:31;;;;;;;29.85;24.85;;;17.60;74.10;;;;;;4999552;28;20175;-91
2021/08/04 02:28:00;;;;;;;29.35;25.27;;;17.70;74.50;;;;;;4998186;28;20184;-91
2021/08/04 02:30:28;;;;;;;34.03;27.52;;;17.60;74.50;;;;;;4996730;28;20280;-91
2021/08/04 02:32:54;;;;;;;33.05;24.55;;;17.60;74.70;;;;;;4995171;28;20234;-92
2021/08/04 02:35:20;;;;;;;34.22;25.08;;;17.70;74.40;;;;;;4996561;28;20176;-91
2021/08/04 02:37:46;;;;;;;34.03;26.30;;;17.80;74.20;;;;;;4997032;28;20573;-92
2021/08/04 02:40:13;;;;;;;34.83;26.00;;;17.70;74.10;;;;;;4994676;28;20218;-91
2021/08/04 02:42:40;;;;;;;31.70;24.63;;;17.70;74.10;;;;;;4994200;28;20439;-92
2021/08/04 02:45:07;;;;;;;34.83;25.15;;;17.70;74.20;;;;;;5010449;28;20191;-92
2021/08/04 02:47:35;;;;;;;32.10;25.08;;;17.60;74.20;;;;;;5009537;28;20175;-92
2021/08/04 02:50:06;;;;;;;34.53;25.23;;;17.60;74.30;;;;;;5005083;28;20270;-91
2021/08/04 02:52:33;;;;;;;32.90;26.42;;;17.50;74.60;;;;;;4996220;28;20199;-91
2021/08/04 02:55:00;;;;;;;34.25;26.92;;;17.50;74.90;;;;;;4994688;28;20238;-91
2021/08/04 02:57:26;;;;;;;33.85;26.30;;;17.40;75.10;;;;;;4996982;28;20302;-91
2021/08/04 02:59:52;;;;;;;36.00;27.08;;;17.40;75.50;;;;;;4995301;28;20543;-92
2021/08/04 03:02:18;;;;;;;38.37;30.10;;;17.30;75.50;;;;;;4996609;28;20198;-91
2021/08/04 03:04:44;;;;;;;34.53;27.03;;;17.20;75.80;;;;;;4997697;28;20945;-91
2021/08/04 03:07:09;;;;;;;36.72;28.17;;;17.10;76.20;;;;;;4995355;28;20419;-92
2021/08/04 03:09:35;;;;;;;33.30;26.37;;;17.10;76.50;;;;;;4995060;28;20527;-91
2021/08/04 03:12:02;;;;;;;39.67;29.20;;;17.00;76.80;;;;;;4999153;28;20195;-91
2021/08/04 03:14:27;;;;;;;44.38;30.50;;;17.10;77.30;;;;;;4999285;28;20194;-91
2021/08/04 03:16:53;;;;;;;37.33;28.20;;;17.10;77.10;;;;;;4996970;28;20171;-91
2021/08/04 03:19:19;;;;;;;36.80;28.00;;;17.10;77.10;;;;;;4998070;28;20218;-91
2021/08/04 03:21:44;;;;;;;37.50;28.00;;;17.00;77.10;;;;;;4997601;28;20322;-91
2021/08/04 03:24:11;;;;;;;41.80;27.40;;;17.10;77.30;;;;;;4997838;28;20651;-91
2021/08/04 03:26:36;;;;;;;37.75;27.92;;;17.10;77.10;;;;;;5000457;28;20553;-92
2021/08/04 03:29:02;;;;;;;44.17;29.23;;;17.20;76.90;;;;;;4999718;28;20191;-92
2021/08/04 03:31:28;;;;;;;37.67;28.33;;;17.20;76.70;;;;;;4998849;28;20186;-91
2021/08/04 03:33:54;;;;;;;42.33;29.17;;;17.20;76.40;;;;;;4999649;28;20689;-91
2021/08/04 03:36:20;;;;;;;39.35;29.67;;;17.30;76.20;;;;;;4995760;28;20785;-92
2021/08/04 03:38:46;;;;;;;37.27;28.77;;;17.30;76.10;;;;;;4995394;28;20207;-91
2021/08/04 03:41:11;;;;;;;35.23;27.90;;;17.20;76.10;;;;;;5000479;28;20422;-91
2021/08/04 03:43:37;;;;;;;40.60;29.10;;;17.30;76.10;;;;;;5011818;28;20203;-91
2021/08/04 03:46:03;;;;;;;39.50;29.97;;;17.40;75.90;;;;;;4996496;28;20179;-91
2021/08/04 03:48:29;;;;;;;41.27;30.50;;;17.40;75.80;;;;;;5010641;28;20525;-92
2021/08/04 03:50:54;;;;;;;38.83;28.07;;;17.30;75.70;;;;;;5006055;28;20242;-91
2021/08/04 03:53:20;;;;;;;33.73;26.97;;;17.30;75.80;;;;;;4993968;28;20661;-91
2021/08/04 03:55:46;;;;;;;39.87;29.77;;;17.30;75.80;;;;;;4994047;28;20210;-92
2021/08/04 03:58:11;;;;;;;38.73;28.67;;;17.30;75.90;;;;;;4993220;28;20223;-92
2021/08/04 04:00:37;;;;;;;37.40;29.20;;;17.20;76.00;;;;;;4993377;28;20218;-92
2021/08/04 04:03:03;;;;;;;38.90;29.73;;;17.20;76.10;;;;;;4993769;28;20199;-91
2021/08/04 04:05:29;;;;;;;39.27;28.33;;;17.30;76.10;;;;;;4997143;28;20426;-91
2021/08/04 04:07:54;;;;;;;37.70;30.10;;;17.20;75.80;;;;;;4997833;28;20549;-92
2021/08/04 04:10:22;;;;;;;37.90;28.50;;;17.20;76.00;;;;;;4998120;28;20505;-92
2021/08/04 04:12:47;;;;;;;37.60;28.55;;;17.10;76.20;;;;;;4998299;28;20221;-91
2021/08/04 04:15:13;;;;;;;39.93;29.60;;;17.20;76.20;;;;;;4997428;28;20273;-92
2021/08/04 04:17:39;;;;;;;35.03;28.33;;;17.20;76.00;;;;;;4997651;28;20211;-92
2021/08/04 04:20:05;;;;;;;34.40;27.67;;;17.40;75.90;;;;;;4999629;28;20175;-91
2021/08/04 04:22:31;;;;;;;37.08;28.27;;;17.20;75.70;;;;;;5002443;28;20564;-91
2021/08/04 04:24:56;;;;;;;39.97;29.17;;;17.20;75.90;;;;;;5001904;28;20187;-92
2021/08/04 04:27:22;;;;;;;36.37;28.50;;;17.30;75.70;;;;;;5000174;28;20215;-91
2021/08/04 04:29:48;;;;;;;39.63;28.07;;;17.30;75.50;;;;;;5000943;28;20175;-91
2021/08/04 04:32:14;;;;;;;39.33;28.70;;;17.30;75.50;;;;;;4999808;28;20538;-92
2021/08/04 04:34:39;;;;;;;36.50;28.23;;;17.40;75.50;;;;;;5001387;28;20659;-91
2021/08/04 04:37:06;;;;;;;37.20;27.60;;;17.20;75.50;;;;;;5020000;28;20186;-92
2021/08/04 04:39:32;;;;;;;39.42;28.30;;;17.10;76.00;;;;;;5012364;28;20481;-91
2021/08/04 04:41:58;;;;;;;40.85;28.35;;;17.00;76.20;;;;;;4999494;28;20210;-91
2021/08/04 04:44:24;;;;;;;36.37;27.33;;;17.10;76.40;;;;;;5001514;28;20183;-92
2021/08/04 04:46:50;;;;;;;29.13;25.57;;;17.20;76.00;;;;;;5002213;28;20422;-91
2021/08/04 04:49:15;;;;;;;36.43;27.00;;;17.30;75.90;;;;;;5000458;28;20175;-91
2021/08/04 04:51:41;;;;;;;31.93;25.87;;;17.50;75.70;;;;;;5002717;28;20546;-92
2021/08/04 04:54:07;;;;;;;33.63;25.20;;;17.70;75.00;;;;;;5014836;28;20217;-92
2021/08/04 04:56:32;;;;;;;35.03;25.73;;;17.70;74.60;;;;;;4997753;28;20716;-92
2021/08/04 04:58:58;;;;;;;29.90;25.27;;;17.90;74.10;;;;;;4996581;28;20882;-91
2021/08/04 05:01:24;;;;;;;33.80;24.40;;;18.00;73.50;;;;;;4996899;28;20179;-91
2021/08/04 05:03:50;;;;;;;33.63;26.20;;;18.10;73.20;;;;;;4998318;28;20195;-91
2021/08/04 05:06:16;;;;;;;30.67;23.23;;;18.00;73.00;;;;;;4998490;28;20171;-91
2021/08/04 05:08:42;;;;;;;33.10;23.60;;;18.10;72.90;;;;;;5000085;28;20197;-91
2021/08/04 05:11:08;;;;;;;29.47;24.47;;;18.20;72.70;;;;;;4998634;28;20269;-92
2021/08/04 05:13:37;;;;;;;27.47;23.10;;;18.30;72.60;;;;;;5000266;28;20253;-91
2021/08/04 05:16:03;;;;;;;28.88;22.60;;;18.40;72.10;;;;;;5001444;28;20183;-91
2021/08/04 05:18:29;;;;;;;28.40;22.75;;;18.40;71.90;;;;;;5002699;28;20233;-92
2021/08/04 05:20:55;;;;;;;29.63;22.37;;;18.40;72.10;;;;;;5006838;28;20171;-91
2021/08/04 05:23:20;;;;;;;28.83;22.87;;;18.50;71.80;;;;;;5003220;28;20211;-91
2021/08/04 05:25:47;;;;;;;28.47;23.17;;;18.40;71.60;;;;;;4997512;28;20193;-91
2021/08/04 05:28:13;;;;;;;29.65;23.00;;;18.40;71.80;;;;;;4997155;28;20202;-92
2021/08/04 05:30:39;;;;;;;27.37;21.50;;;18.30;72.10;;;;;;4997355;28;20550;-91
2021/08/04 05:33:05;;;;;;;29.50;22.20;;;18.10;72.40;;;;;;5003336;28;20501;-91
2021/08/04 05:35:30;;;;;;;32.50;23.20;;;18.00;72.90;;;;;;5006896;28;20198;-92
2021/08/04 05:37:56;;;;;;;34.40;21.97;;;18.10;73.20;;;;;;4999594;28;20211;-91
2021/08/04 05:40:22;;;;;;;29.87;21.57;;;18.10;73.00;;;;;;4999607;28;20237;-92
2021/08/04 05:42:47;;;;;;;33.53;21.60;;;18.20;73.00;;;;;;4998179;28;20245;-92
2021/08/04 05:45:13;;;;;;;29.73;22.53;;;18.30;72.80;;;;;;4998857;28;20422;-91
2021/08/04 05:47:39;;;;;;;28.03;22.50;;;18.20;72.50;;;;;;5003793;28;20287;-91
2021/08/04 05:50:06;;;;;;;27.40;21.37;;;18.20;72.80;;;;;;5001503;28;20461;-91
2021/08/04 05:52:31;;;;;;;27.20;20.80;;;18.20;73.10;;;;;;5002176;28;20209;-91
2021/08/04 05:54:57;;;;;;;29.07;19.97;;;18.20;73.10;;;;;;5002013;28;20202;-92
2021/08/04 05:57:23;;;;;;;28.00;21.30;;;18.20;73.30;;;;;;5006605;28;20238;-88
2021/08/04 05:59:48;;;;;;;22.97;19.63;;;18.30;73.10;;;;;;5012208;28;20222;-92
2021/08/04 06:02:14;;;;;;;26.27;21.70;;;18.20;73.20;;;;;;5003533;28;20207;-91
2021/08/04 06:04:40;;;;;;;25.60;20.63;;;18.50;73.00;;;;;;5001234;28;20194;-91
2021/08/04 06:07:05;;;;;;;30.93;23.50;;;18.60;72.50;;;;;;5001110;28;20278;-91
2021/08/04 06:09:31;;;;;;;30.50;21.30;;;18.50;72.10;;;;;;4999605;28;20267;-91
2021/08/04 06:11:58;;;;;;;23.57;20.00;;;18.60;72.10;;;;;;4997596;28;20595;-92
2021/08/04 06:14:24;;;;;;;29.75;21.63;;;18.60;72.00;;;;;;4999540;28;20187;-91
2021/08/04 06:16:49;;;;;;;25.67;19.60;;;18.60;72.20;;;;;;5002140;28;20269;-91
2021/08/04 06:19:15;;;;;;;22.77;18.43;;;18.60;72.20;;;;;;5003381;28;20458;-91
2021/08/04 06:21:41;;;;;;;25.43;20.20;;;18.50;72.40;;;;;;5004217;28;20258;-91
2021/08/04 06:24:07;;;;;;;30.98;22.10;;;18.60;73.10;;;;;;5003817;28;20179;-91
2021/08/04 06:26:33;;;;;;;25.23;22.17;;;18.70;72.00;;;;;;4999272;28;20190;-91
2021/08/04 06:28:58;;;;;;;27.20;21.50;;;18.70;71.80;;;;;;4999741;28;20190;-91
2021/08/04 06:31:24;;;;;;;30.77;21.67;;;18.60;71.90;;;;;;5007063;28;20187;-91
2021/08/04 06:33:50;;;;;;;25.37;21.07;;;18.70;72.10;;;;;;5005235;28;20590;-91
2021/08/04 06:36:15;;;;;;;28.83;22.53;;;18.70;72.00;;;;;;4982910;28;20419;-91
2021/08/04 06:38:41;;;;;;;26.13;20.40;;;18.70;72.10;;;;;;4997268;28;20310;-92
2021/08/04 06:41:07;;;;;;;27.83;21.07;;;18.60;72.20;;;;;;5000542;28;20190;-91
2021/08/04 06:43:33;;;;;;;27.53;23.43;;;18.80;72.00;;;;;;5004056;28;20238;-91
2021/08/04 06:45:58;;;;;;;35.43;21.50;;;18.80;72.10;;;;;;5003271;28;20335;-92
2021/08/04 06:48:24;;;;;;;26.87;21.10;;;18.70;72.30;;;;;;5000158;28;20430;-91
2021/08/04 06:50:50;;;;;;;24.50;20.60;;;18.80;72.10;;;;;;5000564;28;20175;-91
2021/08/04 06:53:16;;;;;;;30.70;23.37;;;19.10;71.80;;;;;;5000602;28;20200;-91
2021/08/04 06:55:41;;;;;;;26.97;20.70;;;19.20;71.10;;;;;;5000967;28;20706;-91
2021/08/04 06:58:07;;;;;;;23.97;18.97;;;19.30;70.80;;;;;;5003043;28;20551;-91
2021/08/04 07:00:33;;;;;;;27.00;21.63;;;19.10;70.80;;;;;;5000953;28;20179;-92
2021/08/04 07:02:59;;;;;;;24.70;20.80;;;19.30;70.60;;;;;;5010858;28;20195;-92
2021/08/04 07:05:24;;;;;;;26.80;20.20;;;19.50;70.30;;;;;;5004526;28;20442;-91
2021/08/04 07:07:50;;;;;;;29.70;19.70;;;19.70;69.70;;;;;;5000674;28;20194;-92
2021/08/04 07:10:17;;;;;;;20.33;17.13;;;19.80;69.40;;;;;;5001446;28;20195;-92
2021/08/04 07:12:42;;;;;;;23.35;18.45;;;20.10;69.50;;;;;;5001371;28;20265;-91
2021/08/04 07:15:08;;;;;;;24.83;18.50;;;20.50;68.10;;;;;;5003187;28;20195;-91
2021/08/04 07:17:48;;;;;;;22.48;18.70;;;20.70;66.70;;;;;;5002729;28;20281;-92
2021/08/04 07:20:17;;;;;;;26.33;18.67;;;21.10;65.80;;;;;;5003570;28;20183;-91
2021/08/04 07:22:42;;;;;;;31.10;20.30;;;21.30;64.70;;;;;;5002427;28;20195;-91
2021/08/04 07:25:09;;;;;;;25.13;18.70;;;21.30;64.20;;;;;;5010954;28;20198;-91
2021/08/04 07:27:35;;;;;;;28.55;20.10;;;21.40;63.50;;;;;;5000227;28;20438;-92
2021/08/04 07:30:02;;;;;;;23.47;18.90;;;21.10;63.80;;;;;;4995597;28;20179;-91
2021/08/04 07:32:30;;;;;;;22.53;19.50;;;21.20;64.30;;;;;;4999537;28;20464;-92
2021/08/04 07:35:00;;;;;;;23.40;19.37;;;21.10;64.00;;;;;;5000956;28;20548;-92
2021/08/04 07:37:30;;;;;;;22.33;18.95;;;21.10;64.00;;;;;;4999293;28;20433;-91
2021/08/04 07:39:56;;;;;;;26.92;18.42;;;21.30;64.10;;;;;;4997747;28;20179;-91
2021/08/04 07:42:24;;;;;;;25.90;19.67;;;21.30;63.60;;;;;;5000230;28;20199;-92
2021/08/04 07:44:49;;;;;;;22.00;17.23;;;21.20;63.70;;;;;;4997677;28;20756;-91
2021/08/04 07:47:15;;;;;;;19.67;17.67;;;21.20;63.80;;;;;;4998129;28;20469;-91
2021/08/04 07:49:41;;;;;;;19.20;16.10;;;21.30;63.60;;;;;;4996318;28;20213;-91
2021/08/04 07:52:07;;;;;;;23.47;17.50;;;21.40;63.60;;;;;;4996536;28;20283;-91
2021/08/04 07:54:34;;;;;;;22.20;17.73;;;21.20;65.60;;;;;;4999425;28;20499;-91
2021/08/04 07:57:00;;;;;;;32.40;20.10;;;21.20;65.70;;;;;;4999174;28;20497;-91
2021/08/04 07:59:26;;;;;;;29.65;20.20;;;21.10;65.30;;;;;;4996818;28;20462;-91
2021/08/04 08:01:52;;;;;;;27.83;19.20;;;21.20;65.40;;;;;;4993154;28;20566;-91
2021/08/04 08:04:18;;;;;;;23.90;19.50;;;21.30;65.00;;;;;;4993956;28;20430;-91
2021/08/04 08:06:44;;;;;;;19.50;17.33;;;21.50;64.30;;;;;;5002398;28;20517;-90
2021/08/04 08:09:11;;;;;;;20.23;17.40;;;21.60;64.10;;;;;;5015527;28;20266;-92
2021/08/04 08:11:37;;;;;;;22.10;18.23;;;21.60;63.20;;;;;;5015833;28;20457;-92
2021/08/04 08:14:03;;;;;;;21.23;18.27;;;21.50;63.10;;;;;;5003191;28;20457;-91
2021/08/04 08:16:29;;;;;;;28.60;17.83;;;21.70;63.50;;;;;;4996409;28;20433;-91
2021/08/04 08:18:55;;;;;;;20.17;16.70;;;21.70;62.90;;;;;;4996723;28;20466;-91
2021/08/04 08:21:23;;;;;;;21.27;16.37;;;21.70;62.80;;;;;;5007042;28;20536;-91
2021/08/04 08:23:50;;;;;;;21.30;16.80;;;21.70;62.80;;;;;;4993666;28;20453;-91
2021/08/04 08:26:16;;;;;;;21.77;17.37;;;21.80;62.80;;;;;;4992643;28;20422;-92
2021/08/04 08:28:42;;;;;;;23.83;17.97;;;21.80;62.30;;;;;;4992208;28;20426;-91
2021/08/04 08:31:08;;;;;;;22.80;16.13;;;22.00;62.20;;;;;;4993213;28;20521;-92
2021/08/04 08:33:33;;;;;;;28.33;17.10;;;22.10;62.10;;;;;;4993842;28;20670;-92
2021/08/04 08:35:59;;;;;;;22.20;19.13;;;22.20;61.90;;;;;;4994383;28;20179;-91
2021/08/04 08:38:25;;;;;;;24.73;18.20;;;22.20;61.50;;;;;;4994452;28;20214;-91
2021/08/04 08:40:51;;;;;;;27.47;17.93;;;22.40;61.40;;;;;;4993297;28;20214;-91
2021/08/04 08:43:17;;;;;;;24.93;18.13;;;22.40;60.90;;;;;;4993434;28;20203;-91
2021/08/04 08:45:43;;;;;;;19.40;16.50;;;22.00;60.50;;;;;;4993359;28;20310;-91
2021/08/04 08:48:09;;;;;;;20.70;16.10;;;21.90;61.20;;;;;;4993159;28;20513;-91
2021/08/04 08:50:39;;;;;;;23.33;18.13;;;21.80;61.50;;;;;;4996732;28;20513;-92
2021/08/04 08:53:05;;;;;;;23.37;18.27;;;21.90;62.20;;;;;;4997464;28;20253;-92
2021/08/04 08:55:33;;;;;;;23.20;18.23;;;22.00;61.40;;;;;;4998591;28;20422;-92
2021/08/04 08:57:58;;;;;;;21.70;17.80;;;21.90;61.70;;;;;;4997039;28;20458;-91
2021/08/04 09:00:24;;;;;;;23.80;17.20;;;21.90;62.10;;;;;;4995770;28;20537;-92
2021/08/04 09:02:50;;;;;;;20.57;16.27;;;21.80;61.20;;;;;;4995705;28;20638;-91
2021/08/04 09:05:16;;;;;;;22.00;16.90;;;21.90;61.40;;;;;;4996447;28;20215;-92
2021/08/04 09:07:47;;;;;;;24.77;17.70;;;22.10;61.50;;;;;;4995560;28;20274;-91
2021/08/04 09:10:28;;;;;;;20.27;13.13;;;22.20;60.50;;;;;;4995301;28;20417;-91
2021/08/04 09:12:57;;;;;;;24.50;14.83;;;22.20;59.20;;;;;;5013790;28;20453;-92
2021/08/04 09:15:38;;;;;;;21.40;15.40;;;22.40;58.40;;;;;;5006321;28;20442;-91
2021/08/04 09:18:12;;;;;;;20.80;17.07;;;22.60;58.40;;;;;;4996559;28;20469;-92
2021/08/04 09:21:08;;;;;;;19.63;15.40;;;22.30;57.40;;;;;;4996008;28;20436;-92
2021/08/04 09:23:41;;;;;;;19.27;12.70;;;22.30;57.60;;;;;;4986966;28;20430;-91
2021/08/04 09:26:13;;;;;;;24.10;14.67;;;22.70;56.60;;;;;;4995805;28;20418;-92
2021/08/04 09:28:57;;;;;;;23.57;16.80;;;22.50;57.30;;;;;;4995243;28;20426;-91
2021/08/04 09:31:45;;;;;;;22.00;15.60;;;22.70;58.00;;;;;;4995513;28;20426;-92
2021/08/04 09:34:39;;;;;;;20.60;16.17;;;23.00;58.80;;;;;;4995158;28;20426;-92
2021/08/04 09:37:15;;;;;;;24.30;16.87;;;23.20;58.30;;;;;;4995545;28;20512;-92
2021/08/04 09:39:57;;;;;;;26.20;17.30;;;23.10;57.20;;;;;;4995780;28;20461;-91
2021/08/04 09:42:42;;;;;;;24.10;17.10;;;23.00;57.60;;;;;;4995360;28;20791;-91
2021/08/04 09:45:08;;;;;;;24.27;16.20;;;22.80;58.00;;;;;;4995159;28;20568;-92
2021/08/04 09:47:34;;;;;;;24.80;17.77;;;22.60;58.60;;;;;;4995260;28;20415;-92
2021/08/04 09:50:04;;;;;;;22.87;18.13;;;22.30;59.00;;;;;;4997010;28;20464;-92
2021/08/04 09:52:31;;;;;;;19.50;17.20;;;22.10;59.80;;;;;;4995288;28;20597;-91
2021/08/04 09:55:12;;;;;;;18.77;14.47;;;21.80;60.20;;;;;;4995046;28;20941;-91
2021/08/04 09:57:43;;;;;;;19.13;13.90;;;22.00;60.30;;;;;;4996450;28;20418;-91
2021/08/04 10:00:17;;;;;;;15.80;13.47;;;21.90;60.90;;;;;;4994718;28;20436;-92
2021/08/04 10:02:45;;;;;;;22.77;15.07;;;22.10;61.80;;;;;;4994343;28;20803;-91
2021/08/04 10:05:25;;;;;;;18.47;14.63;;;22.40;60.50;;;;;;4995031;28;20513;-91
2021/08/04 10:08:04;;;;;;;18.57;15.47;;;22.30;59.90;;;;;;4996050;28;20422;-92
2021/08/04 10:10:37;;;;;;;22.03;15.20;;;22.40;59.50;;;;;;5000525;28;20406;-92
2021/08/04 10:13:06;;;;;;;17.70;13.10;;;22.50;60.10;;;;;;5002510;28;20476;-92
2021/08/04 10:15:41;;;;;;;16.30;12.40;;;22.40;58.70;;;;;;4996049;28;20485;-91
2021/08/04 10:18:10;;;;;;;20.30;14.37;;;22.70;58.90;;;;;;5012061;28;20484;-92
2021/08/04 10:20:37;;;;;;;22.20;13.73;;;22.90;58.30;;;;;;4994507;28;20880;-91
2021/08/04 10:23:03;;;;;;;19.10;14.57;;;23.00;57.60;;;;;;4994360;28;20450;-91
2021/08/04 10:25:29;;;;;;;19.23;13.53;;;23.10;57.20;;;;;;4994738;28;20548;-91
2021/08/04 10:27:56;;;;;;;11.47;10.20;;;23.40;56.90;;;;;;4994821;28;20425;-91
2021/08/04 10:30:22;;;;;;;12.70;10.83;;;23.50;54.10;;;;;;4993949;28;20429;-91
2021/08/04 10:32:47;;;;;;;13.73;9.53;;;23.30;54.30;;;;;;4995781;28;20794;-92
2021/08/04 10:35:16;;;;;;;17.00;10.00;;;23.50;53.30;;;;;;4995373;28;20179;-91
2021/08/04 10:37:43;;;;;;;14.10;9.53;;;23.20;52.60;;;;;;4993920;28;20186;-91
2021/08/04 10:40:10;;;;;;;12.40;8.80;;;23.50;52.70;;;;;;4995002;28;20437;-92
2021/08/04 10:42:45;;;;;;;9.83;8.73;;;23.50;52.50;;;;;;4995085;28;20446;-91
2021/08/04 10:45:22;;;;;;;13.90;10.67;;;23.70;52.10;;;;;;4994281;28;20427;-92
2021/08/04 10:47:58;;;;;;;10.40;9.30;;;23.80;52.70;;;;;;4994263;28;20434;-91
2021/08/04 10:50:25;;;;;;;8.87;7.87;;;24.10;52.70;;;;;;4993677;28;20822;-91
2021/08/04 10:52:57;;;;;;;13.53;9.77;;;23.80;50.90;;;;;;4994270;28;20461;-92
2021/08/04 10:55:26;;;;;;;14.23;11.97;;;23.40;51.40;;;;;;4993796;28;20434;-91
2021/08/04 10:58:04;;;;;;;14.13;9.77;;;23.60;52.00;;;;;;4993415;28;20500;-91
2021/08/04 11:00:31;;;;;;;11.37;10.20;;;24.00;51.90;;;;;;4993787;28;20430;-91
2021/08/04 11:02:57;;;;;;;9.87;8.90;;;24.10;50.80;;;;;;4993229;28;20525;-91
2021/08/04 11:05:23;;;;;;;9.70;8.23;;;24.10;49.60;;;;;;4994640;28;20469;-91
2021/08/04 11:08:17;;;;;;;11.13;10.00;;;24.10;49.20;;;;;;5001995;28;20187;-92
2021/08/04 11:10:44;;;;;;;11.93;7.43;;;24.10;48.60;;;;;;4993703;28;20241;-92
2021/08/04 11:13:10;;;;;;;8.07;7.03;;;24.30;48.00;;;;;;4993518;28;20466;-92
2021/08/04 11:15:36;;;;;;;14.60;7.47;;;23.90;47.10;;;;;;4993026;28;20476;-92
2021/08/04 11:18:13;;;;;;;9.43;7.33;;;23.90;48.30;;;;;;4993374;28;20556;-92
2021/08/04 11:21:14;;;;;;;12.00;7.30;;;23.90;48.10;;;;;;4993138;28;20414;-91
2021/08/04 11:23:45;;;;;;;7.93;6.90;;;24.10;48.70;;;;;;5007592;28;20487;-92
2021/08/04 11:26:26;;;;;;;11.63;6.83;;;24.00;47.30;;;;;;4993120;28;20425;-91
2021/08/04 11:28:53;;;;;;;11.40;8.50;;;24.10;47.40;;;;;;4992978;28;20947;-91
2021/08/04 11:31:20;;;;;;;10.00;8.10;;;24.10;46.40;;;;;;4993509;28;20418;-92
2021/08/04 11:33:46;;;;;;;7.50;6.30;;;24.20;46.00;;;;;;4992929;28;20979;-92
2021/08/04 11:36:18;;;;;;;7.47;6.77;;;24.10;46.10;;;;;;4993132;28;20410;-91
2021/08/04 11:39:01;;;;;;;6.37;5.77;;;23.60;47.10;;;;;;4994204;28;20559;-92
2021/08/04 11:41:30;;;;;;;8.17;7.47;;;23.50;48.40;;;;;;5016692;28;20441;-91
2021/08/04 11:43:59;;;;;;;11.17;6.53;;;23.60;47.60;;;;;;5003614;28;20426;-91
2021/08/04 11:46:32;;;;;;;15.03;6.30;;;23.70;47.60;;;;;;4993727;28;20457;-91
2021/08/04 11:48:58;;;;;;;16.13;5.80;;;23.80;47.80;;;;;;4994204;28;20429;-91
2021/08/04 11:51:36;;;;;;;6.87;6.17;;;23.90;47.80;;;;;;4994508;28;20453;-91
2021/08/04 11:54:04;;;;;;;8.20;7.40;;;24.00;47.20;;;;;;4994603;28;20836;-91
2021/08/04 11:56:30;;;;;;;14.30;7.90;;;24.20;47.00;;;;;;4993653;28;20826;-91
2021/08/04 11:59:01;;;;;;;7.57;6.10;;;24.20;47.30;;;;;;4993140;28;20570;-91
2021/08/04 12:01:27;;;;;;;12.33;7.13;;;24.50;46.50;;;;;;4993372;28;20425;-91
2021/08/04 12:04:07;;;;;;;10.30;7.00;;;24.60;46.40;;;;;;4998866;28;20447;-91
2021/08/04 12:06:33;;;;;;;9.40;7.37;;;25.20;45.80;;;;;;4993296;28;20198;-92
2021/08/04 12:09:29;;;;;;;9.53;8.33;;;25.60;45.10;;;;;;4994447;28;20449;-92
2021/08/04 12:11:56;;;;;;;11.40;7.40;;;25.80;43.50;;;;;;4992686;28;20485;-92
2021/08/04 12:14:22;;;;;;;8.87;7.97;;;26.00;44.80;;;;;;4993115;28;20434;-92
2021/08/04 12:16:51;;;;;;;13.97;9.27;;;25.80;43.40;;;;;;4993384;28;20434;-91
2021/08/04 12:19:41;;;;;;;6.97;6.17;;;25.10;44.50;;;;;;4992986;28;20454;-91
2021/08/04 12:22:19;;;;;;;7.57;6.87;;;25.20;45.00;;;;;;4992763;28;20561;-91
2021/08/04 12:24:48;;;;;;;10.30;8.03;;;24.90;45.70;;;;;;4993574;28;20421;-91
2021/08/04 12:27:27;;;;;;;9.00;7.93;;;24.80;46.80;;;;;;5007850;28;20418;-91
2021/08/04 12:30:12;;;;;;;10.87;8.37;;;24.50;46.40;;;;;;5001128;28;20442;-91
2021/08/04 12:32:55;;;;;;;10.10;8.13;;;24.10;47.50;;;;;;4996431;28;20437;-92
2021/08/04 12:35:46;;;;;;;8.53;7.47;;;23.70;48.50;;;;;;4996027;28;20433;-91